Кузьмино

Карта отелей и гостиниц, располагающихся рядом с аэропортом Кузьмино :

Кузьмино Марий Эл 56° 47' 31.6788" N, 46° 2' 18.5388" E
Код аэродрома ИКАО
ZA6T
Код аэродрома RU
ЗА6Т
Координаты
N56.79213° E046.03848°
Превышение над уровнем моря
81
Основная полоса
04/22
Курс магнитный
039/219
Длина основной ВПП
600
Ширина основной ВПП
40
Покрытие основной ВПП
Нетвёрдое (грунт)
Освещение ВПП
Нет
Тип: 
Аэродром
Класс аэродрома: 
Принадлежность: 
ГА
Статус: 
Недействующий
Сайт: 
E-mail аэродрома: 
Страна: 
Россия
Регион: 
Марий Эл
Город: 
Дополнительная информация: 
Посадка не возможна.

Найти трансфер

С помощью этой формы Вы можете найти трансфер из аэропорта Кузьмино в город, аэропорт или вокзал:

Карта места

Javascript is required to view this map.

Погода в аэропортах:

Авиационная погода в Перми

Регион: 
Погода METAR: 
USPP 170530Z 24004MPS 9000 -SN BKN016 M11/M12 Q0995 R21/390132 NOSIG RMK QFE736
Время наблюдения
2021-01-17T05:30:00Z
Температура C
-11.0
Точка росы
-12.0
Направление ветра
240
Скорость ветра (узлы)
8
Метео видимость
5.59
Явления погоды
-SN
Условия полета
MVFR
Аэропорт подробнее: 

Авиационная погода в Миккели

Регион: 
Погода METAR: 
EFMI 301050Z AUTO 11005KT 9999 -SHRASN OVC005 00/M01 Q1019
Время наблюдения
2020-11-30T10:50:00Z
Температура C
0.0
Точка росы
-1.0
Направление ветра
110
Скорость ветра (узлы)
5
Метео видимость
6.21
Явления погоды
-SHRA -SHSN
Условия полета
IFR

Авиационная погода в Симферополе

Погода METAR: 
URFF 170530Z 03009MPS 1700 R01/1800U SN DRSN BKN006 OVC023 M05/M05 Q1007 R01/421595 NOSIG
Время наблюдения
2021-01-17T05:30:00Z
Температура C
-5.0
Точка росы
-5.0
Направление ветра
30
Скорость ветра (узлы)
17
Метео видимость
1.06
Явления погоды
DRSN SN
Условия полета
IFR
Аэропорт подробнее: 

Авиационная погода в Гомеле

Регион: 
Погода METAR: 
UMGG 170530Z 29005MPS 2100 -SHSN BR OVC018CB M18/M21 Q1013 R28/490635 TEMPO 1400
Время наблюдения
2021-01-17T05:30:00Z
Температура C
-18.0
Точка росы
-21.0
Направление ветра
290
Скорость ветра (узлы)
10
Метео видимость
1.3
Явления погоды
-SHSN BR
Условия полета
IFR
Аэропорт подробнее: